Weatherby, Missouri
Current Conditions -  °F | °C
As of 7:53 PM on Saturday 22 Nov 2014 (Local Time) from KSTJ Reporting Station
Overcast Overcast  
Wind Chill: 55°   Ceiling: 1700
Heat Index: 55°   Visibility: 10mi
Dew Point: 51°   Wind: 20mph
Humidity: 86%   Direction: 190°S
Pressure: 29.7"   Gusts: 26mph
Location:  39.91°N, 94.24°W
Report Text: KSTJ 230153Z AUTO 19017G23KT 10SM OVC017 13/11 A2970 RMK AO2 PK WND 18026/0118 SLP058 T01280106
Loading
Personal Weather Stations






























Interactive Weather Map New forecast layout! Learn more

10-Day Weather Forecast

Advertisements
Track Severe Weather on mobile